Time;durP1;ratioP1;P1;durP2;ratioP2;P2;SDS_P1;SDS_P2;PMS_P1;PMS_P2;Temp;Humidity;BMP_temperature;BMP_pressure;BME280_temperature;BME280_humidity;BME280_pressure;Samples;Min_cycle;Max_cycle;Signal;HPM_P1;HPM_P2
2023/06/19 00:01:54;;;;;;;0.10;0.10;;;;;;;18.11;59.70;97222.34;5021466;28;20046;-74
2023/06/19 00:04:22;;;;;;;0.10;0.10;;;;;;;18.12;59.63;97223.97;5024301;28;20465;-73
2023/06/19 00:06:51;;;;;;;0.10;0.10;;;;;;;18.03;59.81;97228.19;5018140;28;20076;-73
2023/06/19 00:09:18;;;;;;;0.13;0.13;;;;;;;17.84;60.08;97222.28;5025831;28;20049;-73
2023/06/19 00:11:46;;;;;;;0.13;0.13;;;;;;;17.82;60.54;97221.69;5015983;28;20049;-72
2023/06/19 00:14:14;;;;;;;0.10;0.10;;;;;;;17.69;60.98;97213.97;5024958;28;20132;-72
2023/06/19 00:16:41;;;;;;;0.10;0.10;;;;;;;17.74;60.68;97219.44;5028009;28;20511;-73
2023/06/19 00:19:10;;;;;;;0.20;0.20;;;;;;;17.60;61.13;97216.25;5029658;28;20149;-73
2023/06/19 00:21:38;;;;;;;0.13;0.13;;;;;;;17.79;60.34;97218.69;5026561;28;20044;-73
2023/06/19 00:24:07;;;;;;;0.10;0.10;;;;;;;17.84;60.29;97216.06;5023542;28;20265;-74
2023/06/19 00:26:35;;;;;;;0.10;0.10;;;;;;;17.68;60.64;97212.31;5026287;28;20113;-74
2023/06/19 00:29:03;;;;;;;0.20;0.20;;;;;;;17.56;60.91;97206.19;5029017;28;20060;-73
2023/06/19 00:31:30;;;;;;;0.00;0.00;;;;;;;17.69;60.98;97218.53;5018973;28;20475;-72
2023/06/19 00:33:58;;;;;;;0.10;0.10;;;;;;;17.45;61.45;97212.50;5029057;28;20149;-73
2023/06/19 00:36:26;;;;;;;0.03;0.03;;;;;;;17.29;62.12;97206.06;5023037;28;20060;-74
2023/06/19 00:38:54;;;;;;;0.10;0.10;;;;;;;17.40;61.48;97205.16;5028956;28;20079;-73
2023/06/19 00:41:23;;;;;;;0.20;0.20;;;;;;;17.31;62.22;97203.94;5028333;28;20111;-74
2023/06/19 00:43:52;;;;;;;0.13;0.13;;;;;;;17.13;62.63;97204.22;5031746;28;20091;-74
2023/06/19 00:46:19;;;;;;;0.20;0.20;;;;;;;17.30;62.22;97205.00;5025704;28;20079;-73
2023/06/19 00:48:47;;;;;;;0.03;0.03;;;;;;;17.23;62.95;97202.47;5021068;28;20045;-73
2023/06/19 00:51:15;;;;;;;0.10;0.10;;;;;;;17.39;62.45;97208.91;5027902;28;20071;-72
2023/06/19 00:53:43;;;;;;;0.10;0.10;;;;;;;17.25;63.06;97202.22;5017449;28;20073;-73
2023/06/19 00:56:10;;;;;;;0.10;0.10;;;;;;;17.15;63.37;97200.19;5026556;28;20054;-73
2023/06/19 00:58:39;;;;;;;0.03;0.03;;;;;;;17.03;63.86;97194.06;5030713;28;20052;-73
2023/06/19 01:01:07;;;;;;;0.13;0.13;;;;;;;17.06;63.90;97198.16;5046234;28;20594;-73
2023/06/19 01:03:37;;;;;;;0.10;0.10;;;;;;;17.12;63.62;97195.31;5026537;28;20037;-72
2023/06/19 01:06:08;;;;;;;0.13;0.13;;;;;;;17.22;63.17;97203.56;5023462;28;20037;-73
2023/06/19 01:08:44;;;;;;;0.20;0.20;;;;;;;17.12;63.82;97203.41;5025769;28;20049;-72
2023/06/19 01:11:14;;;;;;;0.10;0.10;;;;;;;17.13;63.68;97188.81;5038825;28;20140;-73
2023/06/19 01:13:57;;;;;;;0.10;0.10;;;;;;;16.96;64.36;97192.59;5022216;28;20073;-73
2023/06/19 01:16:26;;;;;;;0.13;0.13;;;;;;;16.92;64.55;97194.16;5042083;28;20049;-73
2023/06/19 01:18:55;;;;;;;0.10;0.10;;;;;;;17.00;64.16;97194.56;5019925;28;20382;-73
2023/06/19 01:21:23;;;;;;;0.10;0.10;;;;;;;16.96;64.66;97196.09;5045298;28;20049;-72
2023/06/19 01:23:52;;;;;;;0.10;0.10;;;;;;;17.04;64.04;97190.28;5028017;28;20417;-73
2023/06/19 01:26:27;;;;;;;0.13;0.13;;;;;;;16.74;64.99;97189.78;5023790;28;20045;-73
2023/06/19 01:28:56;;;;;;;0.10;0.10;;;;;;;16.87;64.29;97189.47;5028388;28;20037;-73
2023/06/19 01:31:27;;;;;;;0.03;0.03;;;;;;;16.70;65.27;97180.59;5029511;28;20497;-73
2023/06/19 01:33:56;;;;;;;0.00;0.00;;;;;;;16.72;65.18;97175.75;5026130;28;20394;-73
2023/06/19 01:36:24;;;;;;;0.13;0.13;;;;;;;16.69;65.50;97178.94;5018845;28;20056;-74
2023/06/19 01:38:55;;;;;;;0.10;0.10;;;;;;;16.93;64.43;97172.31;5025023;28;20493;-74
2023/06/19 01:41:23;;;;;;;0.10;0.10;;;;;;;16.70;65.32;97177.88;5025550;28;20670;-73
2023/06/19 01:43:52;;;;;;;0.15;0.15;;;;;;;16.91;64.26;97177.16;5023764;28;20064;-73
2023/06/19 01:46:19;;;;;;;0.03;0.03;;;;;;;16.80;64.48;97161.88;5031579;28;20064;-73
2023/06/19 01:48:47;;;;;;;0.13;0.13;;;;;;;16.73;64.78;97162.03;5027323;28;20111;-74
2023/06/19 01:51:15;;;;;;;0.03;0.03;;;;;;;16.69;65.37;97165.47;5020938;28;20437;-73
2023/06/19 01:53:42;;;;;;;0.10;0.10;;;;;;;16.62;65.56;97167.47;5027910;28;20050;-73
2023/06/19 01:56:11;;;;;;;0.13;0.13;;;;;;;16.55;65.69;97164.09;5036477;28;20057;-73
2023/06/19 01:58:39;;;;;;;0.10;0.10;;;;;;;16.62;65.66;97159.41;5030277;28;20049;-73
2023/06/19 02:01:07;;;;;;;0.13;0.13;;;;;;;16.52;66.24;97155.44;5036150;28;20141;-71
2023/06/19 02:03:35;;;;;;;0.10;0.10;;;;;;;16.72;65.21;97163.09;5036976;28;20497;-73
2023/06/19 02:06:02;;;;;;;0.10;0.10;;;;;;;16.83;64.60;97167.56;5019159;28;20096;-72
2023/06/19 02:08:30;;;;;;;0.00;0.00;;;;;;;16.69;65.67;97166.28;5041905;28;20046;-73
2023/06/19 02:10:57;;;;;;;0.10;0.10;;;;;;;16.69;65.59;97168.16;5019094;28;20055;-72
2023/06/19 02:13:26;;;;;;;0.10;0.10;;;;;;;16.81;65.21;97164.34;5031647;28;20041;-72
2023/06/19 02:15:54;;;;;;;0.10;0.10;;;;;;;16.74;65.66;97168.22;5038202;28;20052;-72
2023/06/19 02:18:24;;;;;;;0.05;0.05;;;;;;;16.93;64.97;97163.41;5042157;28;20517;-72
2023/06/19 02:20:52;;;;;;;0.17;0.17;;;;;;;16.90;64.92;97164.75;5025955;28;20140;-73
2023/06/19 02:23:19;;;;;;;0.05;0.05;;;;;;;17.00;64.69;97161.38;5029238;28;20046;-72
2023/06/19 02:25:47;;;;;;;0.00;0.00;;;;;;;17.07;64.42;97152.06;5023676;28;20140;-73
2023/06/19 02:28:17;;;;;;;0.13;0.13;;;;;;;17.17;64.00;97152.22;5037174;28;20041;-72
2023/06/19 02:30:46;;;;;;;0.03;0.03;;;;;;;17.24;64.26;97152.03;5026948;28;20064;-73
2023/06/19 02:33:14;;;;;;;0.08;0.08;;;;;;;17.22;63.60;97149.59;5019446;28;20037;-73
2023/06/19 02:35:42;;;;;;;0.13;0.13;;;;;;;17.33;63.25;97155.13;5024181;28;20045;-73
2023/06/19 02:38:09;;;;;;;0.03;0.03;;;;;;;17.27;63.60;97161.50;5023441;28;20042;-73
2023/06/19 02:40:37;;;;;;;0.20;0.20;;;;;;;17.30;63.62;97163.72;5021315;28;20532;-73
2023/06/19 02:43:05;;;;;;;0.13;0.13;;;;;;;17.29;63.66;97156.69;5022740;28;20085;-73
2023/06/19 02:45:32;;;;;;;0.10;0.10;;;;;;;17.31;63.56;97150.00;5044703;28;20045;-73
2023/06/19 02:48:04;;;;;;;0.10;0.10;;;;;;;17.34;63.26;97154.06;5024956;28;20038;-73
2023/06/19 02:50:32;;;;;;;0.10;0.10;;;;;;;17.51;62.59;97154.84;5015939;28;20059;-73
2023/06/19 02:53:00;;;;;;;0.13;0.13;;;;;;;17.71;62.30;97157.84;5017766;28;20038;-73
2023/06/19 02:55:27;;;;;;;0.20;0.20;;;;;;;17.83;61.90;97160.41;5023916;22;20156;-72
2023/06/19 02:57:56;;;;;;;0.10;0.10;;;;;;;17.94;61.59;97157.59;5008264;28;21232;-73
2023/06/19 03:00:24;;;;;;;0.08;0.08;;;;;;;17.96;61.85;97158.13;5006682;28;20137;-73
2023/06/19 03:02:53;;;;;;;0.10;0.10;;;;;;;17.99;61.61;97162.22;4991466;28;20045;-73
2023/06/19 03:05:22;;;;;;;0.10;0.10;;;;;;;18.03;61.47;97162.53;4977818;28;20042;-73
2023/06/19 03:07:49;;;;;;;0.00;0.00;;;;;;;18.02;61.67;97169.81;4981050;28;20448;-73
2023/06/19 03:10:17;;;;;;;0.05;0.05;;;;;;;17.89;61.88;97168.31;4973260;28;20525;-73
2023/06/19 03:12:45;;;;;;;0.10;0.10;;;;;;;17.79;62.14;97161.97;4984356;28;20043;-71
2023/06/19 03:15:13;;;;;;;0.10;0.10;;;;;;;17.87;61.20;97161.53;4977299;28;20047;-72
2023/06/19 03:17:45;;;;;;;0.17;0.17;;;;;;;18.00;60.94;97168.44;4979419;28;20049;-72
2023/06/19 03:20:13;;;;;;;0.03;0.03;;;;;;;18.13;60.65;97162.66;4972966;28;20093;-72
2023/06/19 03:22:49;;;;;;;0.10;0.10;;;;;;;18.17;59.88;97161.88;4969442;28;20505;-72
2023/06/19 03:25:19;;;;;;;0.10;0.10;;;;;;;18.31;59.36;97173.13;4978292;28;20055;-72
2023/06/19 03:27:48;;;;;;;0.10;0.10;;;;;;;18.30;59.61;97166.06;4981401;28;20050;-72
2023/06/19 03:30:18;;;;;;;0.10;0.10;;;;;;;18.48;59.76;97170.34;4991241;28;20079;-72
2023/06/19 03:32:48;;;;;;;0.20;0.20;;;;;;;18.63;59.13;97170.50;4980114;28;20046;-72
2023/06/19 03:35:33;;;;;;;0.10;0.10;;;;;;;18.50;59.01;97170.88;4978736;28;20294;-72
2023/06/19 03:38:02;;;;;;;0.10;0.10;;;;;;;18.48;58.71;97157.59;4971270;28;20098;-72
2023/06/19 03:40:30;;;;;;;0.10;0.10;;;;;;;18.56;58.49;97170.69;4974429;28;20050;-72
2023/06/19 03:43:03;;;;;;;0.10;0.10;;;;;;;18.63;58.14;97159.69;4969201;28;20078;-72
2023/06/19 03:45:32;;;;;;;0.10;0.10;;;;;;;18.63;57.89;97170.50;4977418;28;20447;-72
2023/06/19 03:48:00;;;;;;;0.00;0.00;;;;;;;18.70;57.50;97165.69;4970847;28;20055;-72
2023/06/19 03:50:27;;;;;;;0.13;0.13;;;;;;;18.76;57.40;97172.78;4978401;28;20050;-72
2023/06/19 03:52:55;;;;;;;0.10;0.10;;;;;;;18.81;57.18;97172.81;4975786;28;20035;-72
2023/06/19 03:55:24;;;;;;;0.10;0.10;;;;;;;18.79;57.01;97169.53;4969067;28;20133;-72
2023/06/19 03:57:52;;;;;;;0.10;0.10;;;;;;;18.87;56.73;97179.09;4976804;28;20105;-72
2023/06/19 04:00:20;;;;;;;0.03;0.03;;;;;;;18.86;56.74;97178.28;4969098;28;20077;-73
2023/06/19 04:02:49;;;;;;;0.03;0.03;;;;;;;18.91;56.71;97186.44;4978120;28;20131;-73
2023/06/19 04:05:19;;;;;;;0.10;0.10;;;;;;;18.88;56.92;97188.84;4970301;28;20127;-73
2023/06/19 04:07:48;;;;;;;0.10;0.10;;;;;;;18.88;56.79;97188.84;4982283;28;20077;-73
2023/06/19 04:10:16;;;;;;;0.00;0.00;;;;;;;18.93;56.57;97188.88;4970971;28;20426;-73
2023/06/19 04:12:46;;;;;;;0.10;0.10;;;;;;;18.93;56.43;97192.41;4973337;28;20054;-72
2023/06/19 04:15:13;;;;;;;0.10;0.10;;;;;;;19.00;56.19;97187.59;4981349;28;20081;-73
2023/06/19 04:17:41;;;;;;;0.13;0.13;;;;;;;19.03;56.39;97197.91;4975995;28;20104;-73
2023/06/19 04:20:10;;;;;;;0.00;0.00;;;;;;;18.99;56.61;97194.09;4976752;28;20038;-74
2023/06/19 04:22:39;;;;;;;0.03;0.03;;;;;;;19.06;56.57;97191.97;4985525;28;20145;-74
2023/06/19 04:25:08;;;;;;;0.10;0.10;;;;;;;19.06;56.20;97191.16;4980773;28;20051;-74
2023/06/19 04:27:36;;;;;;;0.03;0.03;;;;;;;19.06;56.15;97202.78;4982392;28;20058;-74
2023/06/19 04:30:06;;;;;;;0.03;0.03;;;;;;;19.10;55.98;97205.81;4982074;28;20047;-74
2023/06/19 04:32:35;;;;;;;0.13;0.13;;;;;;;19.13;56.03;97199.88;4986352;28;20469;-74
2023/06/19 04:35:03;;;;;;;0.13;0.13;;;;;;;19.16;55.90;97203.94;4984621;28;20062;-74
2023/06/19 04:37:30;;;;;;;0.10;0.10;;;;;;;19.18;55.63;97199.91;4976918;28;20145;-73
2023/06/19 04:39:58;;;;;;;0.20;0.20;;;;;;;19.20;55.63;97196.97;4987312;28;20042;-74
2023/06/19 04:42:26;;;;;;;0.10;0.10;;;;;;;19.22;55.65;97206.44;4976453;28;20051;-73
2023/06/19 04:44:55;;;;;;;0.08;0.08;;;;;;;19.25;55.76;97208.63;4972423;28;20509;-73
2023/06/19 04:47:24;;;;;;;0.00;0.00;;;;;;;19.28;55.63;97205.41;4963083;28;20047;-73
2023/06/19 04:50:08;;;;;;;0.10;0.10;;;;;;;19.33;55.69;97202.72;4977251;28;20107;-73
2023/06/19 04:52:36;;;;;;;0.10;0.10;;;;;;;19.32;55.51;97211.91;4974844;28;20076;-73
2023/06/19 04:55:04;;;;;;;0.03;0.03;;;;;;;19.32;55.54;97217.31;4965783;28;20039;-73
2023/06/19 04:57:31;;;;;;;0.13;0.13;;;;;;;19.27;55.57;97214.59;4964415;28;20043;-73
2023/06/19 04:59:59;;;;;;;0.10;0.10;;;;;;;19.22;55.72;97216.44;4973401;28;20070;-73
2023/06/19 05:02:28;;;;;;;0.10;0.10;;;;;;;19.25;55.77;97219.44;4987611;28;20035;-74
2023/06/19 05:04:55;;;;;;;0.03;0.03;;;;;;;19.24;55.93;97209.69;4980679;28;20096;-74
2023/06/19 05:07:23;;;;;;;0.10;0.10;;;;;;;19.27;55.79;97208.38;4964966;28;20493;-73
2023/06/19 05:09:50;;;;;;;0.03;0.03;;;;;;;19.22;55.76;97208.31;4977938;28;20049;-73
2023/06/19 05:12:18;;;;;;;0.03;0.03;;;;;;;19.33;55.70;97210.03;4968426;28;20046;-74
2023/06/19 05:14:45;;;;;;;0.20;0.20;;;;;;;19.37;55.52;97211.16;4985226;28;20387;-73
2023/06/19 05:17:13;;;;;;;0.17;0.17;;;;;;;19.35;55.59;97221.41;4975903;28;20047;-73
2023/06/19 05:19:42;;;;;;;0.03;0.03;;;;;;;19.33;55.80;97221.66;4984182;28;20051;-73
2023/06/19 05:22:09;;;;;;;0.03;0.03;;;;;;;19.40;55.66;97227.69;4987937;28;20042;-72
2023/06/19 05:24:38;;;;;;;0.03;0.03;;;;;;;19.34;55.87;97223.31;4976971;28;20046;-73
2023/06/19 05:27:06;;;;;;;0.20;0.20;;;;;;;19.36;55.83;97225.75;4980474;28;20042;-74
2023/06/19 05:29:34;;;;;;;0.17;0.17;;;;;;;19.34;55.71;97222.47;4982694;28;20117;-72
2023/06/19 05:32:01;;;;;;;0.08;0.08;;;;;;;19.35;55.78;97218.69;4974781;28;20053;-72
2023/06/19 05:34:29;;;;;;;0.08;0.08;;;;;;;19.40;55.86;97227.69;4983288;28;20050;-72
2023/06/19 05:37:00;;;;;;;0.03;0.03;;;;;;;19.37;55.92;97228.19;4974427;28;20049;-72
2023/06/19 05:39:28;;;;;;;0.13;0.13;;;;;;;19.36;56.12;97221.16;4982317;28;20046;-72
2023/06/19 05:41:55;;;;;;;0.03;0.03;;;;;;;19.37;56.24;97227.38;4978014;28;20125;-72
2023/06/19 05:44:23;;;;;;;0.10;0.10;;;;;;;19.38;56.34;97229.03;4987245;28;20140;-72
2023/06/19 05:46:50;;;;;;;0.03;0.03;;;;;;;19.41;56.12;97231.22;4975309;28;20062;-72
2023/06/19 05:49:18;;;;;;;0.03;0.03;;;;;;;19.44;56.20;97228.78;4986307;28;20046;-73
2023/06/19 05:51:46;;;;;;;0.10;0.10;;;;;;;19.50;56.08;97231.56;4977630;28;20043;-72
2023/06/19 05:54:15;;;;;;;0.03;0.03;;;;;;;19.57;55.80;97221.31;4959948;28;20043;-73
2023/06/19 05:56:42;;;;;;;0.10;0.10;;;;;;;19.59;55.45;97227.31;4977801;28;20046;-72
2023/06/19 05:59:10;;;;;;;0.10;0.10;;;;;;;19.64;55.02;97224.59;4972171;28;20050;-72
2023/06/19 06:01:37;;;;;;;0.10;0.10;;;;;;;19.76;54.97;97220.63;4973417;28;20042;-72
2023/06/19 06:04:05;;;;;;;0.03;0.03;;;;;;;19.85;54.76;97234.47;4977707;28;20455;-72
2023/06/19 06:06:33;;;;;;;0.10;0.10;;;;;;;19.84;54.77;97229.31;4987225;28;20105;-73
2023/06/19 06:09:00;;;;;;;0.03;0.03;;;;;;;19.86;54.45;97230.69;4975854;28;20050;-71
2023/06/19 06:11:29;;;;;;;0.10;0.10;;;;;;;19.91;54.28;97228.03;4973658;28;20399;-72
2023/06/19 06:13:57;;;;;;;0.10;0.10;;;;;;;20.12;54.14;97229.75;4981552;28;20043;-71
2023/06/19 06:16:24;;;;;;;0.10;0.10;;;;;;;20.15;53.84;97226.50;4971373;28;20055;-71
2023/06/19 06:18:52;;;;;;;0.03;0.03;;;;;;;20.06;54.17;97222.66;4985613;28;20038;-72
2023/06/19 06:21:19;;;;;;;0.10;0.10;;;;;;;20.07;54.00;97223.50;4979275;28;20046;-72
2023/06/19 06:23:47;;;;;;;0.20;0.20;;;;;;;20.09;54.04;97227.56;4980385;28;20042;-72
2023/06/19 06:26:15;;;;;;;0.00;0.00;;;;;;;20.21;53.81;97221.13;4974885;28;20137;-72
2023/06/19 06:28:44;;;;;;;0.00;0.00;;;;;;;20.26;53.80;97221.94;4969941;28;20047;-72
2023/06/19 06:31:11;;;;;;;0.03;0.03;;;;;;;20.27;53.39;97230.88;4977223;28;20125;-72
2023/06/19 06:33:39;;;;;;;0.10;0.10;;;;;;;20.31;53.65;97224.69;4979045;28;20039;-72
2023/06/19 06:36:06;;;;;;;0.10;0.10;;;;;;;20.35;52.83;97230.44;4979414;28;20050;-72
2023/06/19 06:38:35;;;;;;;0.20;0.20;;;;;;;20.42;52.77;97236.41;4975832;28;20051;-72
2023/06/19 06:41:03;;;;;;;0.13;0.13;;;;;;;20.41;52.27;97226.63;4986508;28;20046;-72
2023/06/19 06:43:30;;;;;;;0.03;0.03;;;;;;;20.42;52.27;97236.41;4975003;28;20089;-71
2023/06/19 06:45:59;;;;;;;0.10;0.10;;;;;;;20.58;52.29;97232.66;4980966;28;20528;-72
2023/06/19 06:48:27;;;;;;;0.08;0.08;;;;;;;20.59;50.04;97237.00;4976824;28;20498;-72
2023/06/19 06:51:00;;;;;;;0.00;0.00;;;;;;;20.64;50.20;97234.31;4981760;28;20394;-71
2023/06/19 06:53:28;;;;;;;0.03;0.03;;;;;;;20.69;50.37;97247.88;4976317;28;20065;-71
2023/06/19 06:55:56;;;;;;;0.08;0.08;;;;;;;20.74;50.08;97247.88;4975017;28;20046;-74
2023/06/19 06:58:24;;;;;;;0.10;0.10;;;;;;;20.81;49.63;97244.91;4978770;28;20060;-71
2023/06/19 07:00:51;;;;;;;0.10;0.10;;;;;;;20.88;49.04;97237.31;4977110;28;20073;-71
2023/06/19 07:03:20;;;;;;;0.08;0.08;;;;;;;20.88;49.17;97248.97;4984145;28;20070;-71
2023/06/19 07:05:48;;;;;;;0.10;0.10;;;;;;;20.89;49.52;97250.63;4976953;28;20046;-71
2023/06/19 07:08:16;;;;;;;0.10;0.10;;;;;;;20.96;49.67;97252.28;4981941;28;20548;-74
2023/06/19 07:10:44;;;;;;;0.10;0.10;;;;;;;21.02;49.12;97245.75;4973365;28;20038;-74
2023/06/19 07:13:11;;;;;;;0.17;0.17;;;;;;;21.08;48.78;97250.09;4984030;28;20121;-71
2023/06/19 07:15:39;;;;;;;0.03;0.03;;;;;;;21.12;48.54;97252.00;4974002;28;20039;-72
2023/06/19 07:18:07;;;;;;;0.10;0.10;;;;;;;21.15;48.48;97253.38;4980106;28;20050;-74
2023/06/19 07:20:36;;;;;;;0.10;0.10;;;;;;;21.18;48.69;97252.84;4967141;28;20102;-74
2023/06/19 07:23:03;;;;;;;0.10;0.10;;;;;;;21.18;48.98;97253.66;4973312;28;20043;-72
2023/06/19 07:25:33;;;;;;;0.10;0.10;;;;;;;21.21;48.93;97252.31;4970227;28;20047;-74
2023/06/19 07:28:01;;;;;;;0.10;0.10;;;;;;;21.23;49.19;97255.56;4982026;28;20085;-71
2023/06/19 07:30:28;;;;;;;0.03;0.03;;;;;;;21.28;49.29;97257.50;4974632;28;20051;-72
2023/06/19 07:32:56;;;;;;;0.13;0.13;;;;;;;21.35;49.37;97256.13;4985522;28;20046;-71
2023/06/19 07:35:24;;;;;;;0.03;0.03;;;;;;;21.45;49.62;97258.84;4973265;28;20097;-72
2023/06/19 07:37:53;;;;;;;0.10;0.10;;;;;;;21.53;49.22;97252.84;4979846;28;20050;-71
2023/06/19 07:40:20;;;;;;;0.10;0.10;;;;;;;21.58;49.18;97252.03;4976024;28;20471;-71
2023/06/19 07:42:48;;;;;;;0.00;0.00;;;;;;;21.65;49.31;97252.56;4979790;28;20460;-72
2023/06/19 07:45:16;;;;;;;0.10;0.10;;;;;;;21.73;48.94;97253.91;4974613;28;20525;-72
2023/06/19 07:47:43;;;;;;;0.00;0.00;;;;;;;21.79;49.08;97250.94;4963504;28;20049;-71
2023/06/19 07:50:11;;;;;;;0.03;0.03;;;;;;;21.89;49.03;97253.63;4983257;28;20051;-71
2023/06/19 07:52:39;;;;;;;0.10;0.10;;;;;;;21.97;48.63;97247.63;4971597;28;20061;-72
2023/06/19 07:55:08;;;;;;;0.10;0.10;;;;;;;22.05;48.20;97251.69;4973740;28;20540;-72
2023/06/19 07:57:36;;;;;;;0.10;0.10;;;;;;;22.11;47.91;97241.63;4979584;28;20475;-72
2023/06/19 08:00:08;;;;;;;0.10;0.10;;;;;;;22.18;47.62;97253.84;4973106;28;20051;-71
2023/06/19 08:02:38;;;;;;;0.10;0.03;;;;;;;22.19;47.84;97255.47;4982629;28;20051;-74
2023/06/19 08:05:07;;;;;;;0.03;0.03;;;;;;;22.23;47.98;97247.53;4977061;28;20053;-72
2023/06/19 08:07:35;;;;;;;0.00;0.00;;;;;;;22.31;48.42;97247.81;4978529;28;20556;-74
2023/06/19 08:10:03;;;;;;;0.05;0.05;;;;;;;22.40;48.16;97260.81;4977701;28;20414;-72
2023/06/19 08:12:55;;;;;;;0.03;0.03;;;;;;;22.48;47.75;97252.06;4972896;28;20038;-71
2023/06/19 08:15:22;;;;;;;0.00;0.00;;;;;;;22.59;47.79;97254.47;4977353;28;20046;-71
2023/06/19 08:17:50;;;;;;;0.10;0.10;;;;;;;22.74;48.17;97260.94;4975113;28;20038;-71
2023/06/19 08:20:19;;;;;;;0.00;0.00;;;;;;;22.89;46.99;97253.50;4971652;28;20074;-72
2023/06/19 08:22:47;;;;;;;0.10;0.10;;;;;;;23.18;46.36;97245.41;4985097;28;20061;-72
2023/06/19 08:25:14;;;;;;;0.00;0.00;;;;;;;23.39;45.95;97246.06;4979754;28;20397;-71
2023/06/19 08:27:45;;;;;;;0.08;0.08;;;;;;;23.55;45.59;97247.59;4985131;28;20046;-71
2023/06/19 08:30:14;;;;;;;0.10;0.10;;;;;;;23.61;44.59;97248.34;4973454;28;20059;-74
2023/06/19 08:32:41;;;;;;;0.10;0.10;;;;;;;23.69;44.70;97251.28;4972188;28;20473;-72
2023/06/19 08:35:09;;;;;;;0.05;0.05;;;;;;;23.73;44.25;97246.88;4972142;28;20115;-72
2023/06/19 08:37:36;;;;;;;0.00;0.00;;;;;;;23.79;44.25;97243.00;4973768;28;20134;-72
2023/06/19 08:40:09;;;;;;;0.00;0.00;;;;;;;24.01;44.39;97247.13;4977794;28;20593;-72
2023/06/19 08:42:37;;;;;;;0.10;0.10;;;;;;;24.17;43.40;97243.16;4974088;28;20089;-73
2023/06/19 08:45:06;;;;;;;0.00;0.00;;;;;;;24.24;43.83;97242.81;4985748;28;20067;-72
2023/06/19 08:47:37;;;;;;;0.10;0.10;;;;;;;24.25;43.73;97253.44;4976086;28;20051;-72
2023/06/19 08:50:05;;;;;;;0.00;0.00;;;;;;;24.29;44.00;97248.22;4984681;28;20046;-72
2023/06/19 08:52:33;;;;;;;0.03;0.03;;;;;;;24.30;44.00;97239.72;4970415;28;20525;-72
2023/06/19 08:55:02;;;;;;;0.00;0.00;;;;;;;24.29;43.49;97259.94;5024061;23;20045;-71
2023/06/19 08:57:36;;;;;;;0.00;0.00;;;;;;;24.40;43.38;97249.69;5040335;28;20042;-73
2023/06/19 09:00:06;;;;;;;0.00;0.00;;;;;;;24.75;42.23;97256.63;5042321;28;20128;-72
2023/06/19 09:02:40;;;;;;;0.00;0.00;;;;;;;24.87;40.48;97243.34;5037176;28;20097;-72
2023/06/19 09:05:15;;;;;;;0.00;0.00;;;;;;;24.91;40.28;97257.25;5042340;28;20483;-72
2023/06/19 09:07:44;;;;;;;0.00;0.00;;;;;;;25.16;39.76;97248.69;5039424;28;20395;-73
2023/06/19 09:10:16;;;;;;;0.00;0.00;;;;;;;25.36;38.80;97253.00;5039134;28;20044;-75
2023/06/19 09:12:57;;;;;;;0.00;0.00;;;;;;;25.36;39.40;97259.28;5036397;28;20063;-73
2023/06/19 09:15:28;;;;;;;0.00;0.00;;;;;;;25.39;39.84;97263.34;5033841;28;20045;-73
2023/06/19 09:18:06;;;;;;;0.00;0.00;;;;;;;25.16;40.12;97260.41;5035899;28;20037;-73
2023/06/19 09:20:37;;;;;;;0.03;0.03;;;;;;;24.96;40.20;97249.00;5043162;28;20068;-73
2023/06/19 09:23:04;;;;;;;0.00;0.00;;;;;;;24.83;41.01;97261.41;5039601;28;20052;-75
2023/06/19 09:25:32;;;;;;;0.03;0.03;;;;;;;24.58;41.30;97259.88;5041452;28;20128;-75
2023/06/19 09:27:59;;;;;;;0.03;0.03;;;;;;;24.47;42.00;97252.91;5042359;28;20044;-75
2023/06/19 09:30:27;;;;;;;0.08;0.08;;;;;;;24.48;42.03;97260.81;5035251;28;20041;-74
2023/06/19 09:32:55;;;;;;;0.03;0.03;;;;;;;24.38;42.49;97271.84;5041812;28;20041;-71
2023/06/19 09:35:24;;;;;;;0.00;0.00;;;;;;;24.43;42.26;97270.97;5035156;28;20459;-75
2023/06/19 09:37:56;;;;;;;0.00;0.00;;;;;;;24.38;42.51;97288.22;5029005;28;20507;-74
2023/06/19 09:40:24;;;;;;;0.00;0.00;;;;;;;24.32;42.83;97291.28;5032383;28;20065;-74
2023/06/19 09:42:55;;;;;;;0.00;0.00;;;;;;;24.33;42.75;97288.25;5040483;28;20038;-73
2023/06/19 09:45:28;;;;;;;0.00;0.00;;;;;;;24.28;42.60;97290.25;5035679;28;20529;-75
2023/06/19 09:47:56;;;;;;;0.10;0.10;;;;;;;24.22;43.15;97291.38;5034014;28;20399;-73
2023/06/19 09:50:38;;;;;;;0.10;0.10;;;;;;;24.13;43.37;97285.72;5032634;28;20477;-72
2023/06/19 09:53:06;;;;;;;0.00;0.00;;;;;;;24.08;43.13;97291.25;5036685;28;20049;-72
2023/06/19 09:55:34;;;;;;;0.10;0.10;;;;;;;24.10;43.95;97294.47;5032496;28;20037;-73
2023/06/19 09:58:02;;;;;;;0.08;0.08;;;;;;;24.07;43.58;97290.44;5037544;28;20102;-74
2023/06/19 10:00:32;;;;;;;0.00;0.00;;;;;;;24.09;43.99;97299.13;5043752;28;20044;-75
2023/06/19 10:03:02;;;;;;;0.10;0.10;;;;;;;24.06;44.40;97283.34;5038653;28;20515;-75
2023/06/19 10:05:30;;;;;;;0.03;0.03;;;;;;;24.08;44.00;97304.91;5032488;28;20049;-73
2023/06/19 10:08:00;;;;;;;0.00;0.00;;;;;;;23.92;43.94;97298.75;5040003;28;20095;-73
2023/06/19 10:10:29;;;;;;;0.10;0.10;;;;;;;23.90;44.34;97300.16;5035350;28;20069;-72
2023/06/19 10:13:12;;;;;;;0.03;0.03;;;;;;;23.77;44.68;97288.00;5038643;28;20120;-73
2023/06/19 10:15:42;;;;;;;0.00;0.00;;;;;;;23.68;44.78;97287.81;5033296;28;20063;-74
2023/06/19 10:18:15;;;;;;;0.10;0.10;;;;;;;23.64;44.94;97297.66;5033175;28;20405;-73
2023/06/19 10:20:44;;;;;;;0.00;0.00;;;;;;;23.66;45.39;97300.09;5036690;28;20037;-74
2023/06/19 10:23:17;;;;;;;0.00;0.00;;;;;;;23.57;45.55;97307.25;5030419;28;20044;-73
2023/06/19 10:25:48;;;;;;;0.10;0.10;;;;;;;23.56;45.00;97295.56;5044081;28;20037;-74
2023/06/19 10:28:21;;;;;;;0.10;0.10;;;;;;;23.64;45.12;97297.66;5043533;28;20049;-73
2023/06/19 10:30:54;;;;;;;0.10;0.10;;;;;;;23.69;45.28;97307.69;5031771;28;20045;-73
2023/06/19 10:33:21;;;;;;;0.00;0.00;;;;;;;23.68;45.48;97304.16;5047607;28;20042;-70
2023/06/19 10:35:49;;;;;;;0.00;0.00;;;;;;;23.67;45.30;97310.69;5029311;28;20050;-72
2023/06/19 10:38:18;;;;;;;0.00;0.00;;;;;;;23.69;44.73;97304.97;5028819;28;20053;-75
2023/06/19 10:40:46;;;;;;;0.00;0.00;;;;;;;23.70;45.11;97312.06;5028615;28;20416;-73
2023/06/19 10:43:20;;;;;;;0.00;0.00;;;;;;;23.70;45.25;97295.69;5035517;28;20041;-74
2023/06/19 10:45:48;;;;;;;0.08;0.08;;;;;;;23.76;45.54;97300.84;5036170;28;20048;-74
2023/06/19 10:48:20;;;;;;;0.10;0.10;;;;;;;23.86;45.20;97296.38;5034528;28;20072;-72
2023/06/19 10:50:48;;;;;;;0.08;0.08;;;;;;;23.89;45.41;97298.50;5034544;28;20048;-73
2023/06/19 10:53:26;;;;;;;0.10;0.10;;;;;;;23.87;44.97;97307.00;5031934;28;20049;-72
2023/06/19 10:55:57;;;;;;;0.03;0.03;;;;;;;23.85;45.46;97305.66;5042241;28;20041;-72
2023/06/19 10:58:25;;;;;;;0.10;0.10;;;;;;;23.79;45.72;97296.69;5046392;28;20053;-72
2023/06/19 11:00:52;;;;;;;0.00;0.00;;;;;;;23.87;45.89;97303.47;5034081;28;20111;-73
2023/06/19 11:03:20;;;;;;;0.00;0.00;;;;;;;23.83;45.60;97299.69;5036540;28;20066;-72
2023/06/19 11:05:49;;;;;;;0.10;0.10;;;;;;;23.74;45.91;97302.22;5040698;28;20041;-72
2023/06/19 11:08:20;;;;;;;0.10;0.10;;;;;;;23.64;46.31;97307.75;5037524;28;20055;-72
2023/06/19 11:10:50;;;;;;;0.03;0.03;;;;;;;23.69;46.36;97297.59;5039922;28;20049;-72
2023/06/19 11:13:19;;;;;;;0.10;0.10;;;;;;;23.64;46.42;97302.31;5046502;28;20518;-73
2023/06/19 11:15:49;;;;;;;0.00;0.00;;;;;;;23.77;46.75;97299.69;5028188;28;20380;-73
2023/06/19 11:18:17;;;;;;;0.00;0.00;;;;;;;23.92;47.03;97290.59;5042593;28;20455;-73
2023/06/19 11:20:47;;;;;;;0.00;0.00;;;;;;;23.97;46.60;97296.00;5043883;28;20041;-74
2023/06/19 11:23:15;;;;;;;0.03;0.03;;;;;;;24.05;46.61;97297.28;5034388;28;20477;-75
2023/06/19 11:25:43;;;;;;;0.03;0.03;;;;;;;23.98;46.35;97302.28;5041487;28;20041;-73
2023/06/19 11:28:17;;;;;;;0.03;0.03;;;;;;;23.98;46.86;97303.06;5035310;28;20125;-74
2023/06/19 11:30:47;;;;;;;0.00;0.00;;;;;;;24.20;46.33;97293.56;5043375;28;20166;-73
2023/06/19 11:33:17;;;;;;;0.00;0.00;;;;;;;24.35;45.88;97294.25;5040248;28;20420;-74
2023/06/19 11:35:48;;;;;;;0.03;0.03;;;;;;;24.60;45.85;97295.88;5022728;28;20051;-74
2023/06/19 11:38:18;;;;;;;0.00;0.00;;;;;;;24.79;45.29;97293.97;5039283;28;20080;-74
2023/06/19 11:40:47;;;;;;;0.13;0.13;;;;;;;24.82;44.88;97300.75;5025668;28;20068;-74
2023/06/19 11:43:29;;;;;;;0.10;0.10;;;;;;;24.83;45.18;97299.66;5039299;28;20408;-74